sensor_id;sensor_type;location;lat;lon;timestamp;pressure;altitude;pressure_sealevel;temperature;humidity
29935;BME280;19905;53.370;-6.314;2023-04-28T00:01:19;100399.47;;;10.60;100.00
29935;BME280;19905;53.370;-6.314;2023-04-28T00:03:48;100395.41;;;10.56;100.00
29935;BME280;19905;53.370;-6.314;2023-04-28T00:06:17;100393.97;;;10.52;100.00
29935;BME280;19905;53.370;-6.314;2023-04-28T00:08:50;100399.53;;;10.49;100.00
29935;BME280;19905;53.370;-6.314;2023-04-28T00:11:20;100390.50;;;10.52;100.00
29935;BME280;19905;53.370;-6.314;2023-04-28T00:13:50;100389.06;;;10.48;100.00
29935;BME280;19905;53.370;-6.314;2023-04-28T00:16:19;100392.53;;;10.48;100.00
29935;BME280;19905;53.370;-6.314;2023-04-28T00:18:47;100388.34;;;10.46;100.00
29935;BME280;19905;53.370;-6.314;2023-04-28T00:21:17;100390.16;;;10.45;100.00
29935;BME280;19905;53.370;-6.314;2023-04-28T00:23:46;100396.38;;;10.44;100.00
29935;BME280;19905;53.370;-6.314;2023-04-28T00:26:17;100389.91;;;10.48;100.00
29935;BME280;19905;53.370;-6.314;2023-04-28T00:28:46;100386.94;;;10.41;100.00
29935;BME280;19905;53.370;-6.314;2023-04-28T00:31:14;100392.56;;;10.37;100.00
29935;BME280;19905;53.370;-6.314;2023-04-28T00:33:44;100398.56;;;10.39;100.00
29935;BME280;19905;53.370;-6.314;2023-04-28T00:36:13;100395.09;;;10.38;100.00
29935;BME280;19905;53.370;-6.314;2023-04-28T00:38:42;100388.59;;;10.42;100.00
29935;BME280;19905;53.370;-6.314;2023-04-28T00:41:12;100393.03;;;10.42;100.00
29935;BME280;19905;53.370;-6.314;2023-04-28T00:43:47;100395.81;;;10.40;100.00
29935;BME280;19905;53.370;-6.314;2023-04-28T00:46:20;100397.72;;;10.38;100.00
29935;BME280;19905;53.370;-6.314;2023-04-28T00:48:57;100406.47;;;10.39;100.00
29935;BME280;19905;53.370;-6.314;2023-04-28T00:51:26;100408.28;;;10.38;100.00
29935;BME280;19905;53.370;-6.314;2023-04-28T00:53:59;100405.66;;;10.38;100.00
29935;BME280;19905;53.370;-6.314;2023-04-28T00:56:29;100406.47;;;10.39;100.00
29935;BME280;19905;53.370;-6.314;2023-04-28T00:58:59;100412.22;;;10.44;100.00
29935;BME280;19905;53.370;-6.314;2023-04-28T01:01:29;100408.50;;;10.47;100.00
29935;BME280;19905;53.370;-6.314;2023-04-28T01:03:58;100408.13;;;10.51;100.00
29935;BME280;19905;53.370;-6.314;2023-04-28T01:06:28;100410.16;;;10.59;100.00
29935;BME280;19905;53.370;-6.314;2023-04-28T01:08:58;100405.81;;;10.58;100.00
29935;BME280;19905;53.370;-6.314;2023-04-28T01:11:27;100405.81;;;10.58;100.00
29935;BME280;19905;53.370;-6.314;2023-04-28T01:13:59;100396.84;;;10.60;100.00
29935;BME280;19905;53.370;-6.314;2023-04-28T01:16:30;100400.81;;;10.55;100.00
29935;BME280;19905;53.370;-6.314;2023-04-28T01:19:00;100397.44;;;10.53;100.00
29935;BME280;19905;53.370;-6.314;2023-04-28T01:21:30;100415.81;;;10.54;100.00
29935;BME280;19905;53.370;-6.314;2023-04-28T01:24:01;100413.88;;;10.56;100.00
29935;BME280;19905;53.370;-6.314;2023-04-28T01:26:29;100423.09;;;10.62;100.00
29935;BME280;19905;53.370;-6.314;2023-04-28T01:28:57;100414.25;;;10.52;100.00
29935;BME280;19905;53.370;-6.314;2023-04-28T01:31:27;100422.69;;;10.46;100.00
29935;BME280;19905;53.370;-6.314;2023-04-28T01:33:57;100424.50;;;10.45;100.00
29935;BME280;19905;53.370;-6.314;2023-04-28T01:36:26;100425.19;;;10.47;100.00
29935;BME280;19905;53.370;-6.314;2023-04-28T01:38:54;100421.00;;;10.45;100.00
29935;BME280;19905;53.370;-6.314;2023-04-28T01:41:25;100422.31;;;10.39;100.00
29935;BME280;19905;53.370;-6.314;2023-04-28T01:43:57;100429.41;;;10.38;100.00
29935;BME280;19905;53.370;-6.314;2023-04-28T01:46:25;100440.94;;;10.37;100.00
29935;BME280;19905;53.370;-6.314;2023-04-28T01:48:54;100445.84;;;10.42;100.00
29935;BME280;19905;53.370;-6.314;2023-04-28T01:51:24;100455.22;;;10.46;100.00
29935;BME280;19905;53.370;-6.314;2023-04-28T01:53:55;100455.69;;;10.51;100.00
29935;BME280;19905;53.370;-6.314;2023-04-28T01:56:25;100456.00;;;10.58;100.00
29935;BME280;19905;53.370;-6.314;2023-04-28T01:58:56;100455.78;;;10.61;100.00
29935;BME280;19905;53.370;-6.314;2023-04-28T02:01:25;100455.78;;;10.61;100.00
29935;BME280;19905;53.370;-6.314;2023-04-28T02:03:54;100455.53;;;10.64;100.00
29935;BME280;19905;53.370;-6.314;2023-04-28T02:06:24;100450.84;;;10.67;100.00
29935;BME280;19905;53.370;-6.314;2023-04-28T02:08:55;100452.53;;;10.68;100.00
29935;BME280;19905;53.370;-6.314;2023-04-28T02:11:26;100450.72;;;10.69;100.00
29935;BME280;19905;53.370;-6.314;2023-04-28T02:13:54;100455.63;;;10.74;100.00
29935;BME280;19905;53.370;-6.314;2023-04-28T02:16:22;100451.41;;;10.71;100.00
29935;BME280;19905;53.370;-6.314;2023-04-28T02:18:58;100452.38;;;10.70;100.00
29935;BME280;19905;53.370;-6.314;2023-04-28T02:21:26;100455.88;;;10.71;100.00
29935;BME280;19905;53.370;-6.314;2023-04-28T02:23:55;100457.28;;;10.75;100.00
29935;BME280;19905;53.370;-6.314;2023-04-28T02:26:26;100464.84;;;10.79;100.00
29935;BME280;19905;53.370;-6.314;2023-04-28T02:28:54;100459.56;;;10.79;100.00
29935;BME280;19905;53.370;-6.314;2023-04-28T02:31:23;100464.16;;;10.77;100.00
29935;BME280;19905;53.370;-6.314;2023-04-28T02:33:54;100460.31;;;10.81;100.00
29935;BME280;19905;53.370;-6.314;2023-04-28T02:36:23;100457.16;;;10.76;100.00
29935;BME280;19905;53.370;-6.314;2023-04-28T02:38:53;100459.81;;;10.76;100.00
29935;BME280;19905;53.370;-6.314;2023-04-28T02:41:22;100460.78;;;10.75;100.00
29935;BME280;19905;53.370;-6.314;2023-04-28T02:43:53;100463.19;;;10.78;100.00
29935;BME280;19905;53.370;-6.314;2023-04-28T02:46:26;100465.69;;;10.80;100.00
29935;BME280;19905;53.370;-6.314;2023-04-28T02:48:55;100465.81;;;10.78;100.00
29935;BME280;19905;53.370;-6.314;2023-04-28T02:51:24;100468.47;;;10.78;100.00
29935;BME280;19905;53.370;-6.314;2023-04-28T02:53:53;100465.34;;;10.73;100.00
29935;BME280;19905;53.370;-6.314;2023-04-28T02:56:22;100469.91;;;10.71;100.00
29935;BME280;19905;53.370;-6.314;2023-04-28T02:58:58;100469.34;;;10.67;100.00
29935;BME280;19905;53.370;-6.314;2023-04-28T03:01:26;100476.28;;;10.68;100.00
29935;BME280;19905;53.370;-6.314;2023-04-28T03:03:55;100473.75;;;10.67;100.00
29935;BME280;19905;53.370;-6.314;2023-04-28T03:06:24;100476.28;;;10.68;100.00
29935;BME280;19905;53.370;-6.314;2023-04-28T03:08:52;100475.31;;;10.69;100.00
29935;BME280;19905;53.370;-6.314;2023-04-28T03:11:21;100468.97;;;10.72;100.00
29935;BME280;19905;53.370;-6.314;2023-04-28T03:13:51;100475.19;;;10.71;100.00
29935;BME280;19905;53.370;-6.314;2023-04-28T03:16:23;100471.84;;;10.69;100.00
29935;BME280;19905;53.370;-6.314;2023-04-28T03:18:52;100471.84;;;10.69;100.00
29935;BME280;19905;53.370;-6.314;2023-04-28T03:21:21;100478.81;;;10.70;100.00
29935;BME280;19905;53.370;-6.314;2023-04-28T03:23:50;100484.94;;;10.71;100.00
29935;BME280;19905;53.370;-6.314;2023-04-28T03:26:20;100482.19;;;10.72;100.00
29935;BME280;19905;53.370;-6.314;2023-04-28T03:28:48;100483.94;;;10.72;100.00
29935;BME280;19905;53.370;-6.314;2023-04-28T03:31:18;100489.38;;;10.70;100.00
29935;BME280;19905;53.370;-6.314;2023-04-28T03:33:47;100481.56;;;10.68;100.00
29935;BME280;19905;53.370;-6.314;2023-04-28T03:36:16;100490.34;;;10.69;100.00
29935;BME280;19905;53.370;-6.314;2023-04-28T03:38:45;100499.94;;;10.70;100.00
29935;BME280;19905;53.370;-6.314;2023-04-28T03:41:14;100499.94;;;10.70;100.00
29935;BME280;19905;53.370;-6.314;2023-04-28T03:43:44;100503.41;;;10.71;100.00
29935;BME280;19905;53.370;-6.314;2023-04-28T03:46:13;100506.06;;;10.71;100.00
29935;BME280;19905;53.370;-6.314;2023-04-28T03:48:41;100503.41;;;10.71;100.00
29935;BME280;19905;53.370;-6.314;2023-04-28T03:51:13;100510.50;;;10.70;100.00
29935;BME280;19905;53.370;-6.314;2023-04-28T03:53:42;100507.75;;;10.60;100.00
29935;BME280;19905;53.370;-6.314;2023-04-28T03:56:11;100510.53;;;10.59;100.00
29935;BME280;19905;53.370;-6.314;2023-04-28T03:58:41;100517.72;;;10.57;100.00
29935;BME280;19905;53.370;-6.314;2023-04-28T04:01:09;100516.56;;;10.50;100.00
29935;BME280;19905;53.370;-6.314;2023-04-28T04:03:37;100521.00;;;10.49;100.00
29935;BME280;19905;53.370;-6.314;2023-04-28T04:06:08;100518.44;;;10.48;100.00
29935;BME280;19905;53.370;-6.314;2023-04-28T04:08:39;100512.69;;;10.42;100.00
29935;BME280;19905;53.370;-6.314;2023-04-28T04:11:10;100520.75;;;10.41;100.00
29935;BME280;19905;53.370;-6.314;2023-04-28T04:13:39;100522.56;;;10.40;100.00
29935;BME280;19905;53.370;-6.314;2023-04-28T04:16:09;100512.94;;;10.39;100.00
29935;BME280;19905;53.370;-6.314;2023-04-28T04:18:37;100520.00;;;10.39;100.00
29935;BME280;19905;53.370;-6.314;2023-04-28T04:21:06;100522.19;;;10.34;100.00
29935;BME280;19905;53.370;-6.314;2023-04-28T04:23:35;100528.56;;;10.31;100.00
29935;BME280;19905;53.370;-6.314;2023-04-28T04:26:07;100538.16;;;10.32;100.00
29935;BME280;19905;53.370;-6.314;2023-04-28T04:28:39;100532.41;;;10.27;100.00
29935;BME280;19905;53.370;-6.314;2023-04-28T04:31:08;100534.41;;;10.24;100.00
29935;BME280;19905;53.370;-6.314;2023-04-28T04:33:36;100536.56;;;10.18;100.00
29935;BME280;19905;53.370;-6.314;2023-04-28T04:36:06;100527.91;;;10.16;100.00
29935;BME280;19905;53.370;-6.314;2023-04-28T04:38:35;100538.09;;;10.21;100.00
29935;BME280;19905;53.370;-6.314;2023-04-28T04:41:05;100540.16;;;10.17;100.00
29935;BME280;19905;53.370;-6.314;2023-04-28T04:43:36;100545.44;;;10.17;100.00
29935;BME280;19905;53.370;-6.314;2023-04-28T04:46:04;100543.38;;;10.21;100.00
29935;BME280;19905;53.370;-6.314;2023-04-28T04:48:33;100550.47;;;10.21;100.00
29935;BME280;19905;53.370;-6.314;2023-04-28T04:51:01;100546.28;;;10.18;100.00
29935;BME280;19905;53.370;-6.314;2023-04-28T04:53:32;100549.75;;;10.18;100.00
29935;BME280;19905;53.370;-6.314;2023-04-28T04:56:01;100555.25;;;10.15;100.00
29935;BME280;19905;53.370;-6.314;2023-04-28T04:58:30;100556.94;;;10.16;100.00
29935;BME280;19905;53.370;-6.314;2023-04-28T05:01:02;100568.59;;;10.14;100.00
29935;BME280;19905;53.370;-6.314;2023-04-28T05:03:30;100569.78;;;10.10;100.00
29935;BME280;19905;53.370;-6.314;2023-04-28T05:05:59;100580.09;;;10.13;100.00
29935;BME280;19905;53.370;-6.314;2023-04-28T05:08:28;100577.69;;;10.10;100.00
29935;BME280;19905;53.370;-6.314;2023-04-28T05:10:57;100577.69;;;10.10;100.00
29935;BME280;19905;53.370;-6.314;2023-04-28T05:13:26;100578.53;;;10.10;100.00
29935;BME280;19905;53.370;-6.314;2023-04-28T05:15:54;100582.97;;;10.10;100.00
29935;BME280;19905;53.370;-6.314;2023-04-28T05:18:26;100584.63;;;10.11;100.00
29935;BME280;19905;53.370;-6.314;2023-04-28T05:20:55;100588.03;;;10.13;100.00
29935;BME280;19905;53.370;-6.314;2023-04-28T05:23:23;100595.81;;;10.14;100.00
29935;BME280;19905;53.370;-6.314;2023-04-28T05:25:52;100596.88;;;10.12;100.00
29935;BME280;19905;53.370;-6.314;2023-04-28T05:28:21;100599.16;;;10.16;100.00
29935;BME280;19905;53.370;-6.314;2023-04-28T05:30:50;100609.50;;;10.19;100.00
29935;BME280;19905;53.370;-6.314;2023-04-28T05:33:18;100611.06;;;10.22;100.00
29935;BME280;19905;53.370;-6.314;2023-04-28T05:35:49;100607.56;;;10.22;100.00
29935;BME280;19905;53.370;-6.314;2023-04-28T05:38:18;100615.47;;;10.22;100.00
29935;BME280;19905;53.370;-6.314;2023-04-28T05:40:56;100615.47;;;10.22;100.00
29935;BME280;19905;53.370;-6.314;2023-04-28T05:43:24;100626.47;;;10.28;100.00
29935;BME280;19905;53.370;-6.314;2023-04-28T05:45:55;100626.47;;;10.28;100.00
29935;BME280;19905;53.370;-6.314;2023-04-28T05:48:25;100634.03;;;10.33;100.00
29935;BME280;19905;53.370;-6.314;2023-04-28T05:50:55;100632.00;;;10.36;100.00
29935;BME280;19905;53.370;-6.314;2023-04-28T05:53:30;100638.59;;;10.42;100.00
29935;BME280;19905;53.370;-6.314;2023-04-28T05:55:58;100640.63;;;10.38;100.00
29935;BME280;19905;53.370;-6.314;2023-04-28T05:58:27;100641.47;;;10.39;100.00
29935;BME280;19905;53.370;-6.314;2023-04-28T06:00:58;100636.44;;;10.36;100.00
29935;BME280;19905;53.370;-6.314;2023-04-28T06:03:26;100642.22;;;10.41;100.00
29935;BME280;19905;53.370;-6.314;2023-04-28T06:05:57;100646.41;;;10.43;100.00
29935;BME280;19905;53.370;-6.314;2023-04-28T06:08:26;100649.66;;;10.47;100.00
29935;BME280;19905;53.370;-6.314;2023-04-28T06:10:54;100644.50;;;10.46;100.00
29935;BME280;19905;53.370;-6.314;2023-04-28T06:13:23;100652.78;;;10.41;100.00
29935;BME280;19905;53.370;-6.314;2023-04-28T06:15:51;100657.31;;;10.39;100.00
29935;BME280;19905;53.370;-6.314;2023-04-28T06:18:21;100656.34;;;10.40;100.00
29935;BME280;19905;53.370;-6.314;2023-04-28T06:20:51;100661.03;;;10.36;100.00
29935;BME280;19905;53.370;-6.314;2023-04-28T06:23:20;100668.72;;;10.39;100.00
29935;BME280;19905;53.370;-6.314;2023-04-28T06:25:49;100670.28;;;10.42;100.00
29935;BME280;19905;53.370;-6.314;2023-04-28T06:28:17;100672.09;;;10.41;100.00
29935;BME280;19905;53.370;-6.314;2023-04-28T06:30:46;100677.03;;;10.46;100.00
29935;BME280;19905;53.370;-6.314;2023-04-28T06:33:14;100682.19;;;10.48;100.00
29935;BME280;19905;53.370;-6.314;2023-04-28T06:35:43;100683.28;;;10.56;100.00
29935;BME280;19905;53.370;-6.314;2023-04-28T06:38:12;100682.94;;;10.61;100.00
29935;BME280;19905;53.370;-6.314;2023-04-28T06:40:42;100687.03;;;10.65;100.00
29935;BME280;19905;53.370;-6.314;2023-04-28T06:43:11;100692.06;;;10.68;100.00
29935;BME280;19905;53.370;-6.314;2023-04-28T06:45:40;100692.06;;;10.68;100.00
29935;BME280;19905;53.370;-6.314;2023-04-28T06:48:08;100703.00;;;10.75;100.00
29935;BME280;19905;53.370;-6.314;2023-04-28T06:50:37;100701.81;;;10.79;100.00
29935;BME280;19905;53.370;-6.314;2023-04-28T06:53:08;100710.94;;;10.86;100.00
29935;BME280;19905;53.370;-6.314;2023-04-28T06:55:37;100707.94;;;11.02;100.00
29935;BME280;19905;53.370;-6.314;2023-04-28T06:58:07;100705.53;;;11.10;100.00
29935;BME280;19905;53.370;-6.314;2023-04-28T07:00:36;100713.84;;;11.05;100.00
29935;BME280;19905;53.370;-6.314;2023-04-28T07:03:04;100718.38;;;11.03;100.00
29935;BME280;19905;53.370;-6.314;2023-04-28T07:05:33;100718.38;;;11.03;100.00
29935;BME280;19905;53.370;-6.314;2023-04-28T07:08:05;100725.03;;;11.09;100.00
29935;BME280;19905;53.370;-6.314;2023-04-28T07:10:33;100721.63;;;11.07;100.00
29935;BME280;19905;53.370;-6.314;2023-04-28T07:13:02;100726.69;;;11.10;100.00
29935;BME280;19905;53.370;-6.314;2023-04-28T07:15:32;100729.81;;;11.15;100.00
29935;BME280;19905;53.370;-6.314;2023-04-28T07:18:01;100728.34;;;11.22;100.00
29935;BME280;19905;53.370;-6.314;2023-04-28T07:20:29;100726.22;;;11.27;100.00
29935;BME280;19905;53.370;-6.314;2023-04-28T07:22:58;100728.59;;;11.30;100.00
29935;BME280;19905;53.370;-6.314;2023-04-28T07:25:28;100732.22;;;11.29;100.00
29935;BME280;19905;53.370;-6.314;2023-04-28T07:27:58;100739.66;;;11.35;100.00
29935;BME280;19905;53.370;-6.314;2023-04-28T07:30:26;100741.69;;;11.43;100.00
29935;BME280;19905;53.370;-6.314;2023-04-28T07:32:56;100744.72;;;11.38;100.00
29935;BME280;19905;53.370;-6.314;2023-04-28T07:35:25;100743.72;;;11.39;100.00
29935;BME280;19905;53.370;-6.314;2023-04-28T07:37:55;100744.72;;;11.38;100.00
29935;BME280;19905;53.370;-6.314;2023-04-28T07:40:24;100757.59;;;11.32;100.00
29935;BME280;19905;53.370;-6.314;2023-04-28T07:42:52;100761.78;;;11.34;100.00
29935;BME280;19905;53.370;-6.314;2023-04-28T07:45:21;100768.88;;;11.34;100.00
29935;BME280;19905;53.370;-6.314;2023-04-28T07:47:49;100768.63;;;11.37;100.00
29935;BME280;19905;53.370;-6.314;2023-04-28T07:50:20;100775.47;;;11.39;100.00
29935;BME280;19905;53.370;-6.314;2023-04-28T07:52:49;100778.94;;;11.40;100.00
29935;BME280;19905;53.370;-6.314;2023-04-28T07:55:17;100781.38;;;11.43;100.00
29935;BME280;19905;53.370;-6.314;2023-04-28T07:57:46;100786.44;;;11.46;100.00
29935;BME280;19905;53.370;-6.314;2023-04-28T08:00:16;100782.31;;;11.53;100.00
29935;BME280;19905;53.370;-6.314;2023-04-28T08:02:45;100791.84;;;11.56;100.00
29935;BME280;19905;53.370;-6.314;2023-04-28T08:05:14;100793.84;;;11.63;100.00
29935;BME280;19905;53.370;-6.314;2023-04-28T08:07:45;100796.63;;;11.62;100.00
29935;BME280;19905;53.370;-6.314;2023-04-28T08:10:15;100800.47;;;11.58;100.00
29935;BME280;19905;53.370;-6.314;2023-04-28T08:12:43;100806.03;;;11.55;100.00
29935;BME280;19905;53.370;-6.314;2023-04-28T08:15:12;100808.03;;;11.62;100.00
29935;BME280;19905;53.370;-6.314;2023-04-28T08:17:44;100802.75;;;11.74;100.00
29935;BME280;19905;53.370;-6.314;2023-04-28T08:20:13;100809.50;;;11.78;100.00
29935;BME280;19905;53.370;-6.314;2023-04-28T08:22:50;100809.84;;;11.73;100.00
29935;BME280;19905;53.370;-6.314;2023-04-28T08:25:19;100814.53;;;11.69;100.00
29935;BME280;19905;53.370;-6.314;2023-04-28T08:27:48;100806.59;;;11.69;100.00
29935;BME280;19905;53.370;-6.314;2023-04-28T08:30:17;100825.00;;;11.71;100.00
29935;BME280;19905;53.370;-6.314;2023-04-28T08:32:45;100825.59;;;11.75;100.00
29935;BME280;19905;53.370;-6.314;2023-04-28T08:35:14;100817.56;;;11.87;100.00
29935;BME280;19905;53.370;-6.314;2023-04-28T08:37:43;100822.34;;;11.93;100.00
29935;BME280;19905;53.370;-6.314;2023-04-28T08:40:14;100825.34;;;12.00;100.00
29935;BME280;19905;53.370;-6.314;2023-04-28T08:42:43;100828.13;;;12.10;100.00
29935;BME280;19905;53.370;-6.314;2023-04-28T08:45:13;100825.19;;;12.13;100.00
29935;BME280;19905;53.370;-6.314;2023-04-28T08:47:43;100826.41;;;12.20;100.00
29935;BME280;19905;53.370;-6.314;2023-04-28T08:50:13;100835.50;;;12.27;100.00
29935;BME280;19905;53.370;-6.314;2023-04-28T08:52:43;100828.50;;;12.37;100.00
29935;BME280;19905;53.370;-6.314;2023-04-28T08:55:13;100837.25;;;12.49;100.00
29935;BME280;19905;53.370;-6.314;2023-04-28T08:57:45;100837.25;;;12.49;100.00
29935;BME280;19905;53.370;-6.314;2023-04-28T09:00:17;100833.16;;;12.45;100.00
29935;BME280;19905;53.370;-6.314;2023-04-28T09:02:46;100841.19;;;12.55;100.00
29935;BME280;19905;53.370;-6.314;2023-04-28T09:05:15;100832.63;;;12.62;100.00
29935;BME280;19905;53.370;-6.314;2023-04-28T09:07:45;100832.53;;;12.53;100.00
29935;BME280;19905;53.370;-6.314;2023-04-28T09:10:21;100833.69;;;12.60;100.00
29935;BME280;19905;53.370;-6.314;2023-04-28T09:12:51;100841.88;;;12.68;100.00
29935;BME280;19905;53.370;-6.314;2023-04-28T09:15:28;100835.72;;;12.67;100.00
29935;BME280;19905;53.370;-6.314;2023-04-28T09:18:00;100831.78;;;12.62;100.00
29935;BME280;19905;53.370;-6.314;2023-04-28T09:20:30;100842.59;;;12.70;100.00
29935;BME280;19905;53.370;-6.314;2023-04-28T09:23:13;100841.38;;;12.74;100.00
29935;BME280;19905;53.370;-6.314;2023-04-28T09:25:59;100845.41;;;12.78;100.00
29935;BME280;19905;53.370;-6.314;2023-04-28T09:28:27;100840.31;;;12.86;100.00
29935;BME280;19905;53.370;-6.314;2023-04-28T09:30:56;100842.38;;;12.83;100.00
29935;BME280;19905;53.370;-6.314;2023-04-28T09:33:25;100843.34;;;12.82;100.00
29935;BME280;19905;53.370;-6.314;2023-04-28T09:35:55;100843.53;;;12.69;100.00
29935;BME280;19905;53.370;-6.314;2023-04-28T09:38:24;100849.50;;;12.82;100.00
29935;BME280;19905;53.370;-6.314;2023-04-28T09:40:55;100851.28;;;12.93;100.00
29935;BME280;19905;53.370;-6.314;2023-04-28T09:43:31;100851.28;;;12.93;100.00
29935;BME280;19905;53.370;-6.314;2023-04-28T09:46:01;100851.66;;;12.88;100.00
29935;BME280;19905;53.370;-6.314;2023-04-28T09:48:34;100858.44;;;12.81;100.00
29935;BME280;19905;53.370;-6.314;2023-04-28T09:51:05;100857.91;;;13.08;100.00
29935;BME280;19905;53.370;-6.314;2023-04-28T09:53:35;100857.88;;;13.19;100.00
29935;BME280;19905;53.370;-6.314;2023-04-28T09:56:05;100868.16;;;13.13;100.00
29935;BME280;19905;53.370;-6.314;2023-04-28T09:58:39;100871.56;;;13.04;100.00
29935;BME280;19905;53.370;-6.314;2023-04-28T10:01:09;100873.44;;;13.13;100.00
29935;BME280;19905;53.370;-6.314;2023-04-28T10:03:38;100872.16;;;13.07;100.00
29935;BME280;19905;53.370;-6.314;2023-04-28T10:06:08;100869.56;;;13.17;100.00
29935;BME280;19905;53.370;-6.314;2023-04-28T10:08:37;100867.06;;;13.36;100.00
29935;BME280;19905;53.370;-6.314;2023-04-28T10:11:07;100868.34;;;13.72;100.00
29935;BME280;19905;53.370;-6.314;2023-04-28T10:13:37;100860.94;;;14.07;100.00
29935;BME280;19905;53.370;-6.314;2023-04-28T10:16:07;100856.28;;;13.99;100.00
29935;BME280;19905;53.370;-6.314;2023-04-28T10:18:36;100848.72;;;13.94;100.00
29935;BME280;19905;53.370;-6.314;2023-04-28T10:21:05;100860.19;;;13.95;100.00
29935;BME280;19905;53.370;-6.314;2023-04-28T10:23:59;100857.84;;;13.61;100.00
29935;BME280;19905;53.370;-6.314;2023-04-28T10:27:03;100852.31;;;13.43;100.00
29935;BME280;19905;53.370;-6.314;2023-04-28T10:29:34;100865.81;;;13.40;100.00
29935;BME280;19905;53.370;-6.314;2023-04-28T10:32:20;100872.16;;;13.28;100.00
29935;BME280;19905;53.370;-6.314;2023-04-28T10:34:52;100877.75;;;13.25;100.00
29935;BME280;19905;53.370;-6.314;2023-04-28T10:40:30;100880.06;;;12.97;100.00
29935;BME280;19905;53.370;-6.314;2023-04-28T10:43:00;100891.44;;;12.88;100.00
29935;BME280;19905;53.370;-6.314;2023-04-28T10:45:59;100888.63;;;12.90;100.00
29935;BME280;19905;53.370;-6.314;2023-04-28T10:51:34;100905.72;;;13.18;100.00
29935;BME280;19905;53.370;-6.314;2023-04-28T10:54:14;100902.09;;;13.30;100.00
29935;BME280;19905;53.370;-6.314;2023-04-28T10:57:15;100904.59;;;13.32;100.00
29935;BME280;19905;53.370;-6.314;2023-04-28T11:00:27;100907.16;;;13.64;100.00
29935;BME280;19905;53.370;-6.314;2023-04-28T11:02:59;100894.50;;;13.77;100.00
29935;BME280;19905;53.370;-6.314;2023-04-28T11:05:28;100889.75;;;14.21;100.00
29935;BME280;19905;53.370;-6.314;2023-04-28T11:08:30;100875.16;;;14.56;100.00
29935;BME280;19905;53.370;-6.314;2023-04-28T11:11:17;100873.78;;;14.71;100.00
29935;BME280;19905;53.370;-6.314;2023-04-28T11:13:48;100869.13;;;14.83;100.00
29935;BME280;19905;53.370;-6.314;2023-04-28T11:16:19;100860.59;;;14.79;100.00
29935;BME280;19905;53.370;-6.314;2023-04-28T11:18:56;100861.31;;;14.71;100.00
29935;BME280;19905;53.370;-6.314;2023-04-28T11:21:25;100867.31;;;14.64;100.00
29935;BME280;19905;53.370;-6.314;2023-04-28T11:23:56;100871.22;;;14.60;100.00
29935;BME280;19905;53.370;-6.314;2023-04-28T11:26:27;100857.53;;;14.55;100.00
29935;BME280;19905;53.370;-6.314;2023-04-28T11:31:25;100864.31;;;14.47;100.00
29935;BME280;19905;53.370;-6.314;2023-04-28T11:34:06;100875.78;;;14.38;100.00
29935;BME280;19905;53.370;-6.314;2023-04-28T11:36:38;100871.84;;;14.23;100.00
29935;BME280;19905;53.370;-6.314;2023-04-28T11:39:09;100868.34;;;14.13;100.00
29935;BME280;19905;53.370;-6.314;2023-04-28T11:41:39;100867.34;;;14.14;100.00
29935;BME280;19905;53.370;-6.314;2023-04-28T11:44:12;100877.72;;;14.17;100.00
29935;BME280;19905;53.370;-6.314;2023-04-28T11:46:45;100881.66;;;14.32;100.00
29935;BME280;19905;53.370;-6.314;2023-04-28T11:49:18;100877.50;;;14.39;100.00
29935;BME280;19905;53.370;-6.314;2023-04-28T11:51:47;100869.56;;;14.49;100.00
29935;BME280;19905;53.370;-6.314;2023-04-28T11:54:20;100878.09;;;14.72;100.00
29935;BME280;19905;53.370;-6.314;2023-04-28T11:56:49;100872.63;;;14.83;100.00
29935;BME280;19905;53.370;-6.314;2023-04-28T11:59:23;100881.88;;;14.89;100.00
29935;BME280;19905;53.370;-6.314;2023-04-28T12:01:53;100870.28;;;14.90;100.00
29935;BME280;19905;53.370;-6.314;2023-04-28T12:04:29;100869.53;;;14.97;100.00
29935;BME280;19905;53.370;-6.314;2023-04-28T12:07:04;100866.31;;;15.13;100.00
29935;BME280;19905;53.370;-6.314;2023-04-28T12:09:33;100865.56;;;15.21;100.00
29935;BME280;19905;53.370;-6.314;2023-04-28T12:12:04;100865.09;;;15.55;100.00
29935;BME280;19905;53.370;-6.314;2023-04-28T12:14:52;100861.25;;;15.77;100.00
29935;BME280;19905;53.370;-6.314;2023-04-28T12:17:25;100854.28;;;15.93;100.00
29935;BME280;19905;53.370;-6.314;2023-04-28T12:20:00;100856.88;;;16.03;100.00
29935;BME280;19905;53.370;-6.314;2023-04-28T12:22:30;100875.75;;;15.92;100.00
29935;BME280;19905;53.370;-6.314;2023-04-28T12:25:03;100864.00;;;15.85;100.00
29935;BME280;19905;53.370;-6.314;2023-04-28T12:27:33;100861.00;;;15.60;100.00
29935;BME280;19905;53.370;-6.314;2023-04-28T12:30:25;100872.91;;;15.56;100.00
29935;BME280;19905;53.370;-6.314;2023-04-28T12:32:54;100872.97;;;15.37;100.00
29935;BME280;19905;53.370;-6.314;2023-04-28T12:35:27;100880.03;;;15.18;100.00
29935;BME280;19905;53.370;-6.314;2023-04-28T12:37:56;100887.44;;;15.15;100.00
29935;BME280;19905;53.370;-6.314;2023-04-28T12:40:25;100892.63;;;15.26;100.00
29935;BME280;19905;53.370;-6.314;2023-04-28T12:42:54;100888.66;;;15.30;100.00
29935;BME280;19905;53.370;-6.314;2023-04-28T12:45:23;100897.53;;;15.31;100.00
29935;BME280;19905;53.370;-6.314;2023-04-28T12:47:52;100894.56;;;15.34;100.00
29935;BME280;19905;53.370;-6.314;2023-04-28T12:50:23;100893.81;;;15.51;100.00
29935;BME280;19905;53.370;-6.314;2023-04-28T12:52:53;100887.97;;;15.85;100.00
29935;BME280;19905;53.370;-6.314;2023-04-28T12:55:22;100894.69;;;15.89;100.00
29935;BME280;19905;53.370;-6.314;2023-04-28T12:57:51;100895.22;;;15.92;100.00